sensor_id;sensor_type;location;lat;lon;timestamp;pressure;altitude;pressure_sealevel;temperature;humidity
44198;BME280;30157;55.512;37.764;2022-11-20T00:02:25;99957.44;;;-3.62;90.88
44198;BME280;30157;55.512;37.764;2022-11-20T00:04:50;100012.41;;;-3.31;90.93
44198;BME280;30157;55.512;37.764;2022-11-20T00:07:16;100015.00;;;-3.29;91.03
44198;BME280;30157;55.512;37.764;2022-11-20T00:09:41;99945.31;;;-3.67;91.17
44198;BME280;30157;55.512;37.764;2022-11-20T00:12:07;99976.72;;;-3.49;90.82
44198;BME280;30157;55.512;37.764;2022-11-20T00:14:33;99997.63;;;-3.38;90.62
44198;BME280;30157;55.512;37.764;2022-11-20T00:16:59;100022.56;;;-3.31;90.75
44198;BME280;30157;55.512;37.764;2022-11-20T00:19:25;100023.41;;;-3.30;91.11
44198;BME280;30157;55.512;37.764;2022-11-20T00:21:51;100023.50;;;-3.29;90.60
44198;BME280;30157;55.512;37.764;2022-11-20T00:24:19;99999.13;;;-3.42;90.91
44198;BME280;30157;55.512;37.764;2022-11-20T00:26:44;100019.22;;;-3.30;90.88
44198;BME280;30157;55.512;37.764;2022-11-20T00:29:10;99992.31;;;-3.43;90.59
44198;BME280;30157;55.512;37.764;2022-11-20T00:31:36;100017.28;;;-3.34;90.59
44198;BME280;30157;55.512;37.764;2022-11-20T00:34:01;100021.84;;;-3.28;90.38
44198;BME280;30157;55.512;37.764;2022-11-20T00:36:28;100022.63;;;-3.29;90.14
44198;BME280;30157;55.512;37.764;2022-11-20T00:38:56;99986.66;;;-3.53;90.13
44198;BME280;30157;55.512;37.764;2022-11-20T00:41:22;100029.38;;;-3.30;90.21
44198;BME280;30157;55.512;37.764;2022-11-20T00:43:49;100023.50;;;-3.29;90.25
44198;BME280;30157;55.512;37.764;2022-11-20T00:46:20;100002.88;;;-3.35;90.06
44198;BME280;30157;55.512;37.764;2022-11-20T00:48:46;100015.72;;;-3.32;90.15
44198;BME280;30157;55.512;37.764;2022-11-20T00:51:13;100005.41;;;-3.35;89.88
44198;BME280;30157;55.512;37.764;2022-11-20T00:53:40;100025.94;;;-3.30;89.93
44198;BME280;30157;55.512;37.764;2022-11-20T00:56:09;100028.66;;;-3.27;90.07
44198;BME280;30157;55.512;37.764;2022-11-20T00:58:37;100018.50;;;-3.27;90.08
44198;BME280;30157;55.512;37.764;2022-11-20T01:01:05;99955.78;;;-3.61;90.26
44198;BME280;30157;55.512;37.764;2022-11-20T01:03:32;99997.78;;;-3.35;89.95
44198;BME280;30157;55.512;37.764;2022-11-20T01:06:05;99998.50;;;-3.38;89.78
44198;BME280;30157;55.512;37.764;2022-11-20T01:08:33;100009.69;;;-3.34;89.46
44198;BME280;30157;55.512;37.764;2022-11-20T01:11:04;100019.38;;;-3.27;89.94
44198;BME280;30157;55.512;37.764;2022-11-20T01:13:31;100021.03;;;-3.27;89.98
44198;BME280;30157;55.512;37.764;2022-11-20T01:18:40;100019.03;;;-3.33;89.86
44198;BME280;30157;55.512;37.764;2022-11-20T01:21:08;99950.47;;;-3.66;89.87
44198;BME280;30157;55.512;37.764;2022-11-20T01:23:37;100026.13;;;-3.27;89.59
44198;BME280;30157;55.512;37.764;2022-11-20T01:26:08;99995.78;;;-3.41;90.04
44198;BME280;30157;55.512;37.764;2022-11-20T01:28:34;99952.72;;;-3.71;90.12
44198;BME280;30157;55.512;37.764;2022-11-20T01:31:00;100001.66;;;-3.42;89.82
44198;BME280;30157;55.512;37.764;2022-11-20T01:33:26;100013.25;;;-3.30;90.17
44198;BME280;30157;55.512;37.764;2022-11-20T01:35:52;100025.16;;;-3.29;90.04
44198;BME280;30157;55.512;37.764;2022-11-20T01:38:18;100025.94;;;-3.30;90.11
44198;BME280;30157;55.512;37.764;2022-11-20T01:40:53;99997.38;;;-3.43;89.59
44198;BME280;30157;55.512;37.764;2022-11-20T01:43:19;100043.88;;;-3.27;89.78
44198;BME280;30157;55.512;37.764;2022-11-20T01:46:17;100032.16;;;-3.25;90.05
44198;BME280;30157;55.512;37.764;2022-11-20T01:51:23;100031.81;;;-3.31;90.15
44198;BME280;30157;55.512;37.764;2022-11-20T01:53:53;100018.03;;;-3.36;89.78
44198;BME280;30157;55.512;37.764;2022-11-20T01:56:21;100021.97;;;-3.42;90.25
44198;BME280;30157;55.512;37.764;2022-11-20T01:58:51;99989.22;;;-3.68;90.18
44198;BME280;30157;55.512;37.764;2022-11-20T02:01:18;100046.88;;;-3.34;90.11
44198;BME280;30157;55.512;37.764;2022-11-20T02:03:44;100061.25;;;-3.35;90.12
44198;BME280;30157;55.512;37.764;2022-11-20T02:06:22;100007.94;;;-3.66;90.27
44198;BME280;30157;55.512;37.764;2022-11-20T02:08:50;100000.00;;;-3.73;90.48
44198;BME280;30157;55.512;37.764;2022-11-20T02:11:16;100060.22;;;-3.39;90.28
44198;BME280;30157;55.512;37.764;2022-11-20T02:13:42;100051.47;;;-3.44;89.92
44198;BME280;30157;55.512;37.764;2022-11-20T02:16:24;100063.44;;;-3.41;89.77
44198;BME280;30157;55.512;37.764;2022-11-20T02:18:51;100014.31;;;-3.73;89.68
44198;BME280;30157;55.512;37.764;2022-11-20T02:24:03;100063.22;;;-3.46;89.54
44198;BME280;30157;55.512;37.764;2022-11-20T02:26:33;100057.16;;;-3.48;89.85
44198;BME280;30157;55.512;37.764;2022-11-20T02:29:02;99953.34;;;-4.06;89.61
44198;BME280;30157;55.512;37.764;2022-11-20T02:31:27;100073.69;;;-3.40;89.19
44198;BME280;30157;55.512;37.764;2022-11-20T02:33:57;100082.88;;;-3.42;89.16
44198;BME280;30157;55.512;37.764;2022-11-20T02:36:26;100072.53;;;-3.45;89.50
44198;BME280;30157;55.512;37.764;2022-11-20T02:38:52;100081.06;;;-3.44;89.52
44198;BME280;30157;55.512;37.764;2022-11-20T02:41:17;100003.41;;;-3.87;89.41
44198;BME280;30157;55.512;37.764;2022-11-20T02:43:43;100019.94;;;-3.79;89.13
44198;BME280;30157;55.512;37.764;2022-11-20T02:46:09;100073.16;;;-3.49;89.25
44198;BME280;30157;55.512;37.764;2022-11-20T02:48:34;100081.91;;;-3.44;89.46
44198;BME280;30157;55.512;37.764;2022-11-20T02:51:02;100064.34;;;-3.56;89.14
44198;BME280;30157;55.512;37.764;2022-11-20T02:53:28;100033.59;;;-3.77;89.26
44198;BME280;30157;55.512;37.764;2022-11-20T02:55:54;100033.59;;;-3.77;88.97
44198;BME280;30157;55.512;37.764;2022-11-20T02:58:19;100016.72;;;-3.91;89.07
44198;BME280;30157;55.512;37.764;2022-11-20T03:00:45;100089.28;;;-3.48;89.11
44198;BME280;30157;55.512;37.764;2022-11-20T03:03:10;100059.03;;;-3.60;88.90
44198;BME280;30157;55.512;37.764;2022-11-20T03:05:36;100087.69;;;-3.46;88.51
44198;BME280;30157;55.512;37.764;2022-11-20T03:08:02;100076.16;;;-3.56;88.59
44198;BME280;30157;55.512;37.764;2022-11-20T03:10:27;100076.31;;;-3.53;88.75
44198;BME280;30157;55.512;37.764;2022-11-20T03:12:56;100078.88;;;-3.53;88.52
44198;BME280;30157;55.512;37.764;2022-11-20T03:15:23;100051.28;;;-3.78;88.50
44198;BME280;30157;55.512;37.764;2022-11-20T03:17:49;100095.84;;;-3.52;88.44
44198;BME280;30157;55.512;37.764;2022-11-20T03:20:14;100089.63;;;-3.57;88.55
44198;BME280;30157;55.512;37.764;2022-11-20T03:22:40;100106.06;;;-3.50;88.78
44198;BME280;30157;55.512;37.764;2022-11-20T03:25:06;100046.69;;;-3.84;88.53
44198;BME280;30157;55.512;37.764;2022-11-20T03:27:33;100101.69;;;-3.53;88.59
44198;BME280;30157;55.512;37.764;2022-11-20T03:29:59;100102.41;;;-3.56;88.57
44198;BME280;30157;55.512;37.764;2022-11-20T03:32:25;100102.69;;;-3.51;88.42
44198;BME280;30157;55.512;37.764;2022-11-20T03:34:50;100026.34;;;-4.00;88.42
44198;BME280;30157;55.512;37.764;2022-11-20T03:37:16;100047.06;;;-3.93;88.15
44198;BME280;30157;55.512;37.764;2022-11-20T03:39:42;100103.72;;;-3.62;88.37
44198;BME280;30157;55.512;37.764;2022-11-20T03:42:08;100086.50;;;-3.68;88.32
44198;BME280;30157;55.512;37.764;2022-11-20T03:44:54;100110.91;;;-3.55;88.53
44198;BME280;30157;55.512;37.764;2022-11-20T03:47:20;100063.94;;;-3.78;88.40
44198;BME280;30157;55.512;37.764;2022-11-20T03:49:46;100129.00;;;-3.49;88.36
44198;BME280;30157;55.512;37.764;2022-11-20T03:52:12;100123.94;;;-3.49;88.41
44198;BME280;30157;55.512;37.764;2022-11-20T03:54:37;100120.16;;;-3.56;88.55
44198;BME280;30157;55.512;37.764;2022-11-20T03:57:03;100103.09;;;-3.58;88.74
44198;BME280;30157;55.512;37.764;2022-11-20T03:59:28;100074.97;;;-3.78;88.17
44198;BME280;30157;55.512;37.764;2022-11-20T04:01:54;100121.47;;;-3.47;88.41
44198;BME280;30157;55.512;37.764;2022-11-20T04:04:20;100007.72;;;-4.16;87.91
44198;BME280;30157;55.512;37.764;2022-11-20T04:06:45;100126.38;;;-3.50;87.92
44198;BME280;30157;55.512;37.764;2022-11-20T04:09:11;100135.59;;;-3.52;87.88
44198;BME280;30157;55.512;37.764;2022-11-20T04:11:39;100114.69;;;-3.63;88.18
44198;BME280;30157;55.512;37.764;2022-11-20T04:14:06;100131.22;;;-3.55;88.16
44198;BME280;30157;55.512;37.764;2022-11-20T04:16:37;100123.59;;;-3.55;87.06
44198;BME280;30157;55.512;37.764;2022-11-20T04:19:05;100140.66;;;-3.52;87.32
44198;BME280;30157;55.512;37.764;2022-11-20T04:21:32;100120.53;;;-3.64;87.07
44198;BME280;30157;55.512;37.764;2022-11-20T04:23:58;100130.69;;;-3.64;87.23
44198;BME280;30157;55.512;37.764;2022-11-20T04:26:26;100151.59;;;-3.53;87.65
44198;BME280;30157;55.512;37.764;2022-11-20T04:28:52;100134.88;;;-3.65;87.74
44198;BME280;30157;55.512;37.764;2022-11-20T04:31:22;100138.75;;;-3.57;87.93
44198;BME280;30157;55.512;37.764;2022-11-20T04:33:48;100076.72;;;-3.92;87.34
44198;BME280;30157;55.512;37.764;2022-11-20T04:36:22;100136.09;;;-3.58;87.20
44198;BME280;30157;55.512;37.764;2022-11-20T04:38:55;100152.66;;;-3.50;86.51
44198;BME280;30157;55.512;37.764;2022-11-20T04:41:24;100140.91;;;-3.63;86.68
44198;BME280;30157;55.512;37.764;2022-11-20T04:43:51;100159.28;;;-3.52;87.01
44198;BME280;30157;55.512;37.764;2022-11-20T04:46:19;100157.44;;;-3.55;86.45
44198;BME280;30157;55.512;37.764;2022-11-20T04:48:46;100160.53;;;-3.60;86.47
44198;BME280;30157;55.512;37.764;2022-11-20T04:51:12;100127.09;;;-3.83;86.54
44198;BME280;30157;55.512;37.764;2022-11-20T04:53:38;100165.50;;;-3.62;86.85
44198;BME280;30157;55.512;37.764;2022-11-20T04:56:05;100182.81;;;-3.55;86.44
44198;BME280;30157;55.512;37.764;2022-11-20T04:58:32;100187.03;;;-3.55;86.73
44198;BME280;30157;55.512;37.764;2022-11-20T05:01:18;100183.72;;;-3.54;86.69
44198;BME280;30157;55.512;37.764;2022-11-20T05:03:44;100187.81;;;-3.56;86.69
44198;BME280;30157;55.512;37.764;2022-11-20T05:06:12;100124.78;;;-3.93;86.80
44198;BME280;30157;55.512;37.764;2022-11-20T05:08:38;100120.31;;;-3.97;86.64
44198;BME280;30157;55.512;37.764;2022-11-20T05:11:08;100189.38;;;-3.58;86.53
44198;BME280;30157;55.512;37.764;2022-11-20T05:13:36;100191.84;;;-3.60;86.51
44198;BME280;30157;55.512;37.764;2022-11-20T05:16:04;100134.00;;;-3.95;86.64
44198;BME280;30157;55.512;37.764;2022-11-20T05:18:30;100194.97;;;-3.64;86.56
44198;BME280;30157;55.512;37.764;2022-11-20T05:20:57;100194.72;;;-3.68;86.91
44198;BME280;30157;55.512;37.764;2022-11-20T05:23:23;100220.97;;;-3.53;86.83
44198;BME280;30157;55.512;37.764;2022-11-20T05:25:55;100205.66;;;-3.55;86.62
44198;BME280;30157;55.512;37.764;2022-11-20T05:28:21;100216.19;;;-3.48;86.02
44198;BME280;30157;55.512;37.764;2022-11-20T05:30:48;100216.88;;;-3.51;86.26
44198;BME280;30157;55.512;37.764;2022-11-20T05:33:14;100214.75;;;-3.58;86.28
44198;BME280;30157;55.512;37.764;2022-11-20T05:35:41;100057.34;;;-4.49;86.25
44198;BME280;30157;55.512;37.764;2022-11-20T05:38:09;100196.19;;;-3.72;86.21
44198;BME280;30157;55.512;37.764;2022-11-20T05:40:35;100220.56;;;-3.61;86.53
44198;BME280;30157;55.512;37.764;2022-11-20T05:43:01;100245.94;;;-3.46;86.48
44198;BME280;30157;55.512;37.764;2022-11-20T05:45:27;100194.34;;;-3.75;85.78
44198;BME280;30157;55.512;37.764;2022-11-20T05:47:53;100246.97;;;-3.42;85.85
44198;BME280;30157;55.512;37.764;2022-11-20T05:50:19;100193.50;;;-3.75;85.94
44198;BME280;30157;55.512;37.764;2022-11-20T05:52:44;100258.13;;;-3.40;85.96
44198;BME280;30157;55.512;37.764;2022-11-20T05:55:10;100252.94;;;-3.42;86.17
44198;BME280;30157;55.512;37.764;2022-11-20T05:57:36;100253.13;;;-3.39;86.12
44198;BME280;30157;55.512;37.764;2022-11-20T06:00:03;100263.03;;;-3.28;86.12
44198;BME280;30157;55.512;37.764;2022-11-20T06:02:34;100260.66;;;-3.25;85.71
44198;BME280;30157;55.512;37.764;2022-11-20T06:05:00;100264.75;;;-3.27;85.23
44198;BME280;30157;55.512;37.764;2022-11-20T06:07:25;100267.28;;;-3.27;85.16
44198;BME280;30157;55.512;37.764;2022-11-20T06:09:51;100273.97;;;-3.29;85.19
44198;BME280;30157;55.512;37.764;2022-11-20T06:12:17;100223.66;;;-3.65;85.02
44198;BME280;30157;55.512;37.764;2022-11-20T06:14:42;100293.13;;;-3.34;84.92
44198;BME280;30157;55.512;37.764;2022-11-20T06:17:08;100193.28;;;-3.93;85.27
44198;BME280;30157;55.512;37.764;2022-11-20T06:19:33;100267.81;;;-3.48;85.55
44198;BME280;30157;55.512;37.764;2022-11-20T06:21:59;100248.25;;;-3.64;85.17
44198;BME280;30157;55.512;37.764;2022-11-20T06:24:25;100297.41;;;-3.33;84.30
44198;BME280;30157;55.512;37.764;2022-11-20T06:26:51;100287.84;;;-3.52;84.60
44198;BME280;30157;55.512;37.764;2022-11-20T06:29:16;100258.75;;;-3.73;84.58
44198;BME280;30157;55.512;37.764;2022-11-20T06:31:42;100317.03;;;-3.31;83.91
44198;BME280;30157;55.512;37.764;2022-11-20T06:34:08;100163.06;;;-4.18;83.72
44198;BME280;30157;55.512;37.764;2022-11-20T06:36:34;100314.84;;;-3.25;84.24
44198;BME280;30157;55.512;37.764;2022-11-20T06:39:00;100293.22;;;-3.33;84.14
44198;BME280;30157;55.512;37.764;2022-11-20T06:41:26;100307.22;;;-3.25;83.99
44198;BME280;30157;55.512;37.764;2022-11-20T06:43:53;100289.44;;;-3.25;83.84
44198;BME280;30157;55.512;37.764;2022-11-20T06:46:19;100307.69;;;-3.17;84.25
44198;BME280;30157;55.512;37.764;2022-11-20T06:48:49;100308.66;;;-3.15;83.92
44198;BME280;30157;55.512;37.764;2022-11-20T06:51:15;100311.19;;;-3.15;83.97
44198;BME280;30157;55.512;37.764;2022-11-20T06:53:41;100317.91;;;-3.15;83.64
44198;BME280;30157;55.512;37.764;2022-11-20T06:56:07;100315.38;;;-3.15;83.69
44198;BME280;30157;55.512;37.764;2022-11-20T06:58:34;100280.81;;;-3.28;83.83
44198;BME280;30157;55.512;37.764;2022-11-20T07:01:09;100233.88;;;-3.50;83.79
44198;BME280;30157;55.512;37.764;2022-11-20T07:03:35;100299.63;;;-3.10;83.80
44198;BME280;30157;55.512;37.764;2022-11-20T07:06:01;100278.00;;;-3.18;83.54
44198;BME280;30157;55.512;37.764;2022-11-20T07:08:28;100297.88;;;-3.11;83.52
44198;BME280;30157;55.512;37.764;2022-11-20T07:10:57;100307.06;;;-3.13;83.59
44198;BME280;30157;55.512;37.764;2022-11-20T07:13:23;100314.78;;;-3.11;83.56
44198;BME280;30157;55.512;37.764;2022-11-20T07:15:49;100328.38;;;-3.11;83.33
44198;BME280;30157;55.512;37.764;2022-11-20T07:18:15;100318.47;;;-3.06;83.42
44198;BME280;30157;55.512;37.764;2022-11-20T07:20:40;100301.66;;;-3.04;83.08
44198;BME280;30157;55.512;37.764;2022-11-20T07:23:06;100245.59;;;-3.37;83.28
44198;BME280;30157;55.512;37.764;2022-11-20T07:25:32;100300.06;;;-3.02;82.86
44198;BME280;30157;55.512;37.764;2022-11-20T07:27:59;100237.81;;;-3.40;82.77
44198;BME280;30157;55.512;37.764;2022-11-20T07:30:28;100267.13;;;-3.30;83.47
44198;BME280;30157;55.512;37.764;2022-11-20T07:32:54;100254.34;;;-3.32;83.26
44198;BME280;30157;55.512;37.764;2022-11-20T07:35:21;100315.75;;;-2.94;82.90
44198;BME280;30157;55.512;37.764;2022-11-20T07:37:47;100291.84;;;-3.13;82.50
44198;BME280;30157;55.512;37.764;2022-11-20T07:40:16;100314.25;;;-3.06;82.82
44198;BME280;30157;55.512;37.764;2022-11-20T07:42:49;100272.91;;;-3.33;83.25
44198;BME280;30157;55.512;37.764;2022-11-20T07:45:16;100325.84;;;-2.96;83.13
44198;BME280;30157;55.512;37.764;2022-11-20T07:47:41;100340.53;;;-2.90;83.10
44198;BME280;30157;55.512;37.764;2022-11-20T07:50:07;100337.31;;;-2.88;82.46
44198;BME280;30157;55.512;37.764;2022-11-20T07:52:33;100318.91;;;-2.98;82.38
44198;BME280;30157;55.512;37.764;2022-11-20T07:54:59;100346.00;;;-2.84;82.37
44198;BME280;30157;55.512;37.764;2022-11-20T07:57:24;100305.75;;;-3.06;82.93
44198;BME280;30157;55.512;37.764;2022-11-20T07:59:50;100333.91;;;-2.88;83.09
44198;BME280;30157;55.512;37.764;2022-11-20T08:02:15;100329.22;;;-2.95;82.92
44198;BME280;30157;55.512;37.764;2022-11-20T08:04:41;100327.47;;;-2.96;82.51
44198;BME280;30157;55.512;37.764;2022-11-20T08:07:07;100302.16;;;-3.10;82.62
44198;BME280;30157;55.512;37.764;2022-11-20T08:09:32;100351.41;;;-2.78;82.38
44198;BME280;30157;55.512;37.764;2022-11-20T08:11:58;100339.47;;;-2.79;82.59
44198;BME280;30157;55.512;37.764;2022-11-20T08:14:42;100340.09;;;-2.83;82.02
44198;BME280;30157;55.512;37.764;2022-11-20T08:17:08;100344.41;;;-2.82;81.96
44198;BME280;30157;55.512;37.764;2022-11-20T08:19:33;100355.88;;;-2.74;82.22
44198;BME280;30157;55.512;37.764;2022-11-20T08:21:59;100363.84;;;-2.67;82.02
44198;BME280;30157;55.512;37.764;2022-11-20T08:24:27;100313.38;;;-2.91;81.97
44198;BME280;30157;55.512;37.764;2022-11-20T08:26:52;100299.38;;;-2.99;81.68
44198;BME280;30157;55.512;37.764;2022-11-20T08:29:18;100298.59;;;-2.98;82.08
44198;BME280;30157;55.512;37.764;2022-11-20T08:31:44;100371.03;;;-2.60;81.58
44198;BME280;30157;55.512;37.764;2022-11-20T08:34:10;100302.00;;;-2.98;81.59
44198;BME280;30157;55.512;37.764;2022-11-20T08:36:36;100340.81;;;-2.71;81.40
44198;BME280;30157;55.512;37.764;2022-11-20T08:39:02;100296.28;;;-2.94;81.27
44198;BME280;30157;55.512;37.764;2022-11-20T08:41:29;100371.38;;;-2.54;81.65
44198;BME280;30157;55.512;37.764;2022-11-20T08:44:07;100306.72;;;-2.89;81.11
44198;BME280;30157;55.512;37.764;2022-11-20T08:46:38;100374.09;;;-2.51;81.20
44198;BME280;30157;55.512;37.764;2022-11-20T08:49:06;100180.63;;;-3.78;80.98
44198;BME280;30157;55.512;37.764;2022-11-20T08:51:32;100381.28;;;-2.59;81.42
44198;BME280;30157;55.512;37.764;2022-11-20T08:53:58;100395.66;;;-2.59;81.61
44198;BME280;30157;55.512;37.764;2022-11-20T08:56:23;100412.22;;;-2.51;81.62
44198;BME280;30157;55.512;37.764;2022-11-20T08:58:50;100405.38;;;-2.52;81.82
44198;BME280;30157;55.512;37.764;2022-11-20T09:01:20;100386.38;;;-2.59;81.75
44198;BME280;30157;55.512;37.764;2022-11-20T09:03:46;100415.06;;;-2.46;82.03
44198;BME280;30157;55.512;37.764;2022-11-20T09:06:12;100416.06;;;-2.73;82.01
44198;BME280;30157;55.512;37.764;2022-11-20T09:08:38;100338.84;;;-3.19;82.31
44198;BME280;30157;55.512;37.764;2022-11-20T09:11:04;100417.31;;;-2.66;82.72
44198;BME280;30157;55.512;37.764;2022-11-20T09:13:32;100433.19;;;-2.55;82.23
44198;BME280;30157;55.512;37.764;2022-11-20T09:16:08;100384.59;;;-2.90;82.52
44198;BME280;30157;55.512;37.764;2022-11-20T09:18:35;100440.97;;;-2.52;82.23
44198;BME280;30157;55.512;37.764;2022-11-20T09:21:06;100413.63;;;-2.56;82.29
44198;BME280;30157;55.512;37.764;2022-11-20T09:23:34;100431.63;;;-2.53;82.61
44198;BME280;30157;55.512;37.764;2022-11-20T09:26:11;100421.53;;;-2.66;82.49
44198;BME280;30157;55.512;37.764;2022-11-20T09:28:37;100427.94;;;-2.58;82.46
44198;BME280;30157;55.512;37.764;2022-11-20T09:31:07;100414.78;;;-2.66;82.95
44198;BME280;30157;55.512;37.764;2022-11-20T09:33:33;100414.50;;;-2.71;82.64
44198;BME280;30157;55.512;37.764;2022-11-20T09:35:59;100398.97;;;-2.75;82.55
44198;BME280;30157;55.512;37.764;2022-11-20T09:38:24;100466.50;;;-2.35;82.02
44198;BME280;30157;55.512;37.764;2022-11-20T09:40:57;100462.38;;;-2.33;82.29
44198;BME280;30157;55.512;37.764;2022-11-20T09:46:26;100451.59;;;-2.29;82.03
44198;BME280;30157;55.512;37.764;2022-11-20T09:49:28;100420.63;;;-2.52;82.06
44198;BME280;30157;55.512;37.764;2022-11-20T09:52:14;100465.19;;;-2.29;82.14
44198;BME280;30157;55.512;37.764;2022-11-20T09:54:43;100400.75;;;-2.59;82.59
44198;BME280;30157;55.512;37.764;2022-11-20T09:57:10;100473.78;;;-2.27;81.98
44198;BME280;30157;55.512;37.764;2022-11-20T09:59:46;100462.38;;;-2.33;82.61
44198;BME280;30157;55.512;37.764;2022-11-20T10:05:04;100423.88;;;-2.70;82.58
44198;BME280;30157;55.512;37.764;2022-11-20T10:07:47;100412.22;;;-2.81;82.85
44198;BME280;30157;55.512;37.764;2022-11-20T10:10:26;100488.56;;;-2.49;83.49
44198;BME280;30157;55.512;37.764;2022-11-20T10:23:56;100483.41;;;-2.51;84.20
44198;BME280;30157;55.512;37.764;2022-11-20T10:26:39;100428.25;;;-2.82;84.53
44198;BME280;30157;55.512;37.764;2022-11-20T10:29:15;100494.03;;;-2.43;84.73
44198;BME280;30157;55.512;37.764;2022-11-20T10:31:49;100493.25;;;-2.42;84.61
44198;BME280;30157;55.512;37.764;2022-11-20T10:34:26;100473.41;;;-2.48;84.56
44198;BME280;30157;55.512;37.764;2022-11-20T10:36:58;100438.94;;;-2.73;84.44
44198;BME280;30157;55.512;37.764;2022-11-20T10:39:32;100452.88;;;-2.66;84.43
44198;BME280;30157;55.512;37.764;2022-11-20T10:42:00;100504.38;;;-2.40;84.94
44198;BME280;30157;55.512;37.764;2022-11-20T10:44:28;100510.06;;;-2.44;84.73
44198;BME280;30157;55.512;37.764;2022-11-20T10:47:17;100506.56;;;-2.46;84.92
44198;BME280;30157;55.512;37.764;2022-11-20T10:49:51;100513.47;;;-2.44;85.12
44198;BME280;30157;55.512;37.764;2022-11-20T10:54:57;100480.16;;;-2.63;84.68
44198;BME280;30157;55.512;37.764;2022-11-20T11:00:09;100513.06;;;-2.37;84.85
44198;BME280;30157;55.512;37.764;2022-11-20T11:05:10;100507.06;;;-2.52;84.74
44198;BME280;30157;55.512;37.764;2022-11-20T11:07:39;100451.63;;;-2.88;84.69
44198;BME280;30157;55.512;37.764;2022-11-20T11:12:51;100513.75;;;-2.54;84.97
44198;BME280;30157;55.512;37.764;2022-11-20T11:15:36;100504.78;;;-2.62;84.96
44198;BME280;30157;55.512;37.764;2022-11-20T11:18:02;100513.44;;;-2.59;84.61
44198;BME280;30157;55.512;37.764;2022-11-20T11:20:28;100521.28;;;-2.56;84.11
44198;BME280;30157;55.512;37.764;2022-11-20T11:22:56;100495.53;;;-2.75;83.50
44198;BME280;30157;55.512;37.764;2022-11-20T11:27:52;100452.47;;;-3.02;83.07
44198;BME280;30157;55.512;37.764;2022-11-20T11:30:19;100466.84;;;-3.02;82.69
44198;BME280;30157;55.512;37.764;2022-11-20T11:32:45;100492.19;;;-2.89;82.77
44198;BME280;30157;55.512;37.764;2022-11-20T11:35:25;100462.38;;;-3.07;82.53
44198;BME280;30157;55.512;37.764;2022-11-20T11:37:54;100527.19;;;-2.70;81.97
44198;BME280;30157;55.512;37.764;2022-11-20T11:40:28;100523.59;;;-2.74;82.22
44198;BME280;30157;55.512;37.764;2022-11-20T11:42:58;100535.44;;;-2.74;81.49
44198;BME280;30157;55.512;37.764;2022-11-20T11:45:25;100522.34;;;-2.80;81.44
44198;BME280;30157;55.512;37.764;2022-11-20T11:47:52;100526.38;;;-2.84;81.27
44198;BME280;30157;55.512;37.764;2022-11-20T11:50:24;100514.69;;;-2.95;81.39
44198;BME280;30157;55.512;37.764;2022-11-20T12:00:32;100543.78;;;-2.90;81.29
44198;BME280;30157;55.512;37.764;2022-11-20T12:05:44;100536.34;;;-2.87;81.56
44198;BME280;30157;55.512;37.764;2022-11-20T12:08:45;100537.16;;;-2.88;81.56
44198;BME280;30157;55.512;37.764;2022-11-20T12:11:11;100526.22;;;-3.00;81.39
44198;BME280;30157;55.512;37.764;2022-11-20T12:16:13;100542.09;;;-2.90;80.98
44198;BME280;30157;55.512;37.764;2022-11-20T12:18:40;100535.97;;;-2.93;81.24
44198;BME280;30157;55.512;37.764;2022-11-20T12:21:20;100536.16;;;-2.90;81.27
44198;BME280;30157;55.512;37.764;2022-11-20T12:39:55;100535.13;;;-2.79;80.71
44198;BME280;30157;55.512;37.764;2022-11-20T12:42:45;100471.97;;;-3.16;80.51
44198;BME280;30157;55.512;37.764;2022-11-20T12:56:41;100562.13;;;-2.81;79.94
44198;BME280;30157;55.512;37.764;2022-11-20T13:04:57;100562.81;;;-2.83;79.99
44198;BME280;30157;55.512;37.764;2022-11-20T13:07:24;100562.03;;;-2.82;80.07
44198;BME280;30157;55.512;37.764;2022-11-20T13:09:54;100561.22;;;-2.81;79.82
44198;BME280;30157;55.512;37.764;2022-11-20T13:12:29;100526.22;;;-3.00;79.75
44198;BME280;30157;55.512;37.764;2022-11-20T13:20:19;100549.38;;;-2.96;80.07
44198;BME280;30157;55.512;37.764;2022-11-20T13:22:49;100560.41;;;-2.95;80.05
44198;BME280;30157;55.512;37.764;2022-11-20T13:25:42;100580.03;;;-2.93;80.27
44198;BME280;30157;55.512;37.764;2022-11-20T13:30:35;100554.56;;;-3.08;80.07
44198;BME280;30157;55.512;37.764;2022-11-20T13:33:07;100524.91;;;-3.22;80.08
44198;BME280;30157;55.512;37.764;2022-11-20T13:35:42;100570.47;;;-2.97;79.94
44198;BME280;30157;55.512;37.764;2022-11-20T13:38:13;100514.97;;;-3.32;79.96
44198;BME280;30157;55.512;37.764;2022-11-20T13:41:00;100518.38;;;-3.32;79.58
44198;BME280;30157;55.512;37.764;2022-11-20T13:43:48;100540.13;;;-3.22;80.14
44198;BME280;30157;55.512;37.764;2022-11-20T13:46:14;100447.69;;;-3.81;79.68
44198;BME280;30157;55.512;37.764;2022-11-20T13:48:42;100579.56;;;-3.00;79.89
44198;BME280;30157;55.512;37.764;2022-11-20T13:51:33;100559.06;;;-3.17;80.26
44198;BME280;30157;55.512;37.764;2022-11-20T14:00:07;100589.25;;;-3.08;80.09
44198;BME280;30157;55.512;37.764;2022-11-20T14:02:36;100581.53;;;-3.10;80.48
44198;BME280;30157;55.512;37.764;2022-11-20T14:05:03;100537.44;;;-3.39;80.00
44198;BME280;30157;55.512;37.764;2022-11-20T14:07:41;100542.59;;;-3.37;80.17
44198;BME280;30157;55.512;37.764;2022-11-20T14:10:25;100608.00;;;-3.06;80.27
44198;BME280;30157;55.512;37.764;2022-11-20T14:12:51;100605.19;;;-3.11;80.47
44198;BME280;30157;55.512;37.764;2022-11-20T14:15:32;100533.03;;;-3.55;80.35
44198;BME280;30157;55.512;37.764;2022-11-20T14:17:59;100612.50;;;-3.15;80.20
44198;BME280;30157;55.512;37.764;2022-11-20T14:20:29;100529.75;;;-3.67;80.20
44198;BME280;30157;55.512;37.764;2022-11-20T14:22:59;100597.66;;;-3.23;80.81
44198;BME280;30157;55.512;37.764;2022-11-20T14:25:27;100612.59;;;-3.14;80.79
44198;BME280;30157;55.512;37.764;2022-11-20T14:28:00;100558.22;;;-3.44;80.69